Time;durP1;ratioP1;P1;durP2;ratioP2;P2;SDS_P1;SDS_P2;PMS_P1;PMS_P2;Temp;Humidity;BMP_temperature;BMP_pressure;BME280_temperature;BME280_humidity;BME280_pressure;Samples;Min_cycle;Max_cycle;Signal;HPM_P1;HPM_P2
2021/05/31 00:02:12;;;;;;;7.70;4.50;;;12.30;80.90;;;;;;5028671;28;20759;-76
2021/05/31 00:04:38;;;;;;;8.17;4.13;;;12.00;82.00;;;;;;5028978;28;20524;-75
2021/05/31 00:07:06;;;;;;;7.57;3.60;;;11.80;83.00;;;;;;5028576;28;20765;-75
2021/05/31 00:09:34;;;;;;;7.97;4.30;;;11.90;82.40;;;;;;5114114;27;20384;-75
2021/05/31 00:12:00;;;;;;;8.02;4.35;;;11.80;83.20;;;;;;5028778;28;20380;-76
2021/05/31 00:14:26;;;;;;;7.72;4.15;;;11.90;82.80;;;;;;5028688;28;20739;-75
2021/05/31 00:16:52;;;;;;;9.50;4.20;;;11.80;82.80;;;;;;5028733;28;20375;-75
2021/05/31 00:19:19;;;;;;;6.93;4.13;;;12.00;81.60;;;;;;5028365;28;20402;-75
2021/05/31 00:21:46;;;;;;;5.90;4.20;;;12.40;79.80;;;;;;5114058;27;20419;-75
2021/05/31 00:24:12;;;;;;;9.10;4.57;;;12.10;80.60;;;;;;5028757;28;20382;-76
2021/05/31 00:26:37;;;;;;;6.70;4.20;;;11.90;81.80;;;;;;5028165;28;20411;-75
2021/05/31 00:29:03;;;;;;;8.90;4.30;;;11.90;82.10;;;;;;5028787;28;21016;-75
2021/05/31 00:31:29;;;;;;;8.15;4.13;;;11.80;82.20;;;;;;5028213;28;20384;-75
2021/05/31 00:33:54;;;;;;;8.38;4.53;;;11.80;82.20;;;;;;5028580;28;20379;-75
2021/05/31 00:36:20;;;;;;;8.50;4.50;;;11.70;82.80;;;;;;5114072;27;20567;-75
2021/05/31 00:38:46;;;;;;;7.70;4.90;;;11.50;83.60;;;;;;5113881;27;20392;-75
2021/05/31 00:41:12;;;;;;;9.40;4.55;;;11.40;84.10;;;;;;5028145;28;20660;-75
2021/05/31 00:43:37;;;;;;;6.55;4.03;;;11.70;83.20;;;;;;5028337;28;20463;-75
2021/05/31 00:46:04;;;;;;;8.18;4.80;;;11.70;83.00;;;;;;5028236;28;20460;-76
2021/05/31 00:48:30;;;;;;;9.68;4.68;;;11.50;83.00;;;;;;5113428;27;20396;-75
2021/05/31 00:50:59;;;;;;;9.10;5.00;;;11.50;83.40;;;;;;5113191;27;20395;-76
2021/05/31 00:53:25;;;;;;;8.57;4.53;;;11.60;83.50;;;;;;5113422;27;20899;-76
2021/05/31 00:55:50;;;;;;;6.18;4.15;;;11.60;83.60;;;;;;5027923;28;20398;-76
2021/05/31 00:58:16;;;;;;;9.07;4.93;;;11.60;83.40;;;;;;5027565;28;20383;-76
2021/05/31 01:00:45;;;;;;;6.93;4.50;;;11.70;82.90;;;;;;5113841;27;20387;-75
2021/05/31 01:03:11;;;;;;;10.38;5.53;;;11.40;83.90;;;;;;5113255;27;20560;-75
2021/05/31 01:05:37;;;;;;;8.05;4.80;;;11.30;85.00;;;;;;5028147;28;20755;-76
2021/05/31 01:08:10;;;;;;;5.93;4.40;;;11.30;84.90;;;;;;5113000;27;20952;-76
2021/05/31 01:10:55;;;;;;;6.18;4.40;;;11.30;85.00;;;;;;5113950;27;20439;-75
2021/05/31 01:13:39;;;;;;;7.15;4.50;;;11.40;84.50;;;;;;5027324;28;20887;-75
2021/05/31 01:16:14;;;;;;;6.20;4.07;;;11.40;84.00;;;;;;5027896;28;20459;-75
2021/05/31 01:18:42;;;;;;;12.60;4.60;;;11.40;83.50;;;;;;5027516;28;20425;-75
2021/05/31 01:21:35;;;;;;;8.25;4.75;;;11.20;84.30;;;;;;5027641;28;20423;-75
2021/05/31 01:24:30;;;;;;;10.13;4.85;;;11.30;84.60;;;;;;5025401;28;20470;-75
2021/05/31 01:27:19;;;;;;;8.35;4.93;;;11.50;83.10;;;;;;5027640;28;20379;-76
2021/05/31 01:29:51;;;;;;;9.55;4.97;;;11.60;82.30;;;;;;5027375;28;20468;-75
2021/05/31 01:32:19;;;;;;;7.72;4.75;;;11.60;82.40;;;;;;5113666;27;20739;-75
2021/05/31 01:34:44;;;;;;;7.93;5.00;;;11.60;82.50;;;;;;5027596;28;20379;-75
2021/05/31 01:37:14;;;;;;;7.53;5.17;;;11.40;83.50;;;;;;5112920;27;20390;-75
2021/05/31 01:39:44;;;;;;;9.07;4.70;;;11.10;84.70;;;;;;5027416;28;20484;-76
2021/05/31 01:42:10;;;;;;;9.55;4.82;;;11.30;83.70;;;;;;5027512;28;20559;-76
2021/05/31 01:44:36;;;;;;;9.15;4.93;;;11.50;82.70;;;;;;5113006;27;20746;-76
2021/05/31 01:47:02;;;;;;;7.75;4.85;;;11.40;82.80;;;;;;5112187;27;20860;-77
2021/05/31 01:49:29;;;;;;;6.72;4.70;;;11.40;83.50;;;;;;5027720;28;20380;-76
2021/05/31 01:51:56;;;;;;;6.32;4.65;;;11.30;83.80;;;;;;5112169;27;20394;-75
2021/05/31 01:54:22;;;;;;;8.50;5.00;;;11.00;84.90;;;;;;5027716;28;20558;-75
2021/05/31 01:56:50;;;;;;;9.95;4.93;;;11.10;84.40;;;;;;5026855;28;20568;-76
2021/05/31 01:59:18;;;;;;;10.13;5.13;;;11.30;83.50;;;;;;5027541;28;20379;-75
2021/05/31 02:01:45;;;;;;;10.93;4.70;;;11.40;83.10;;;;;;5027049;28;20407;-75
2021/05/31 02:04:11;;;;;;;14.20;5.30;;;11.40;83.20;;;;;;5112696;27;21040;-76
2021/05/31 02:06:36;;;;;;;9.73;5.00;;;11.30;84.00;;;;;;5026639;28;20478;-76
2021/05/31 02:09:03;;;;;;;8.60;5.40;;;11.10;84.60;;;;;;5027381;28;20932;-75
2021/05/31 02:12:01;;;;;;;9.27;5.15;;;11.10;84.10;;;;;;5112462;27;20379;-76
2021/05/31 02:15:05;;;;;;;7.95;5.05;;;11.30;83.80;;;;;;5027091;28;20395;-76
2021/05/31 02:18:01;;;;;;;9.57;5.32;;;11.30;83.20;;;;;;5112144;27;20886;-75
2021/05/31 02:20:29;;;;;;;8.77;5.25;;;11.40;83.00;;;;;;5112201;27;20391;-75
2021/05/31 02:22:57;;;;;;;8.30;4.88;;;11.10;83.90;;;;;;5026871;28;20902;-76
2021/05/31 02:25:23;;;;;;;8.57;5.00;;;11.20;83.80;;;;;;5111988;27;20394;-75
2021/05/31 02:27:50;;;;;;;12.65;5.50;;;11.00;84.50;;;;;;5111511;27;20607;-75
2021/05/31 02:30:18;;;;;;;11.18;5.72;;;10.90;84.90;;;;;;5026905;28;20375;-75
2021/05/31 02:32:51;;;;;;;11.93;5.50;;;10.80;85.50;;;;;;5027080;28;20379;-75
2021/05/31 02:35:17;;;;;;;8.38;5.43;;;10.80;85.40;;;;;;5026701;28;20383;-76
2021/05/31 02:37:43;;;;;;;12.88;5.50;;;10.80;85.40;;;;;;5026051;28;20391;-75
2021/05/31 02:40:10;;;;;;;8.47;5.27;;;10.70;85.90;;;;;;5026781;28;20380;-75
2021/05/31 02:42:46;;;;;;;8.77;5.28;;;10.80;85.80;;;;;;5026412;28;20395;-76
2021/05/31 02:45:13;;;;;;;10.38;5.13;;;10.80;85.60;;;;;;5026726;28;20383;-76
2021/05/31 02:47:38;;;;;;;8.85;5.53;;;10.80;85.30;;;;;;5111009;28;20390;-75
2021/05/31 02:50:05;;;;;;;9.37;5.53;;;10.80;85.30;;;;;;5025099;28;20388;-75
2021/05/31 02:52:30;;;;;;;9.73;5.87;;;10.80;85.60;;;;;;5111551;28;20887;-76
2021/05/31 02:54:56;;;;;;;9.07;5.27;;;10.70;85.30;;;;;;5111743;28;20489;-75
2021/05/31 02:57:21;;;;;;;9.23;5.37;;;10.70;85.40;;;;;;5111336;28;20545;-74
2021/05/31 02:59:47;;;;;;;9.13;5.25;;;10.80;85.50;;;;;;5026423;28;20859;-75
2021/05/31 03:02:12;;;;;;;10.53;5.80;;;10.80;85.00;;;;;;5026502;28;20426;-75
2021/05/31 03:04:38;;;;;;;11.03;5.80;;;10.80;85.40;;;;;;5026377;28;20379;-75
2021/05/31 03:07:04;;;;;;;8.65;5.82;;;10.70;85.60;;;;;;5025733;28;20438;-75
2021/05/31 03:09:29;;;;;;;9.43;6.50;;;10.70;85.20;;;;;;5026597;28;20414;-75
2021/05/31 03:11:55;;;;;;;9.40;5.28;;;10.60;85.70;;;;;;5111939;27;20398;-75
2021/05/31 03:14:20;;;;;;;11.85;5.93;;;10.60;85.80;;;;;;5115097;27;20399;-75
2021/05/31 03:16:46;;;;;;;12.87;6.10;;;10.70;85.50;;;;;;5029853;28;20477;-75
2021/05/31 03:19:12;;;;;;;9.77;5.50;;;10.60;86.00;;;;;;5029462;28;20848;-75
2021/05/31 03:21:37;;;;;;;10.77;6.30;;;10.70;85.30;;;;;;5029363;28;20493;-76
2021/05/31 03:24:03;;;;;;;8.65;5.55;;;10.80;85.00;;;;;;5115370;27;20466;-74
2021/05/31 03:26:29;;;;;;;10.38;6.43;;;10.80;84.90;;;;;;5115020;27;20841;-74
2021/05/31 03:28:54;;;;;;;11.32;6.15;;;10.70;85.20;;;;;;5115409;27;20397;-75
2021/05/31 03:31:20;;;;;;;9.93;6.63;;;10.60;85.40;;;;;;5029668;28;20726;-75
2021/05/31 03:33:45;;;;;;;13.70;7.03;;;10.60;86.10;;;;;;5029722;28;20755;-75
2021/05/31 03:36:11;;;;;;;10.55;6.40;;;10.50;86.60;;;;;;5028968;28;20387;-75
2021/05/31 03:38:36;;;;;;;12.67;6.37;;;10.60;85.70;;;;;;5033357;22;20374;-75
2021/05/31 03:41:02;;;;;;;9.20;5.87;;;10.60;86.00;;;;;;4989990;28;20519;-75
2021/05/31 03:43:27;;;;;;;12.38;6.30;;;10.50;86.40;;;;;;4990016;28;20414;-76
2021/05/31 03:45:53;;;;;;;12.17;6.60;;;10.50;86.10;;;;;;4990087;28;20414;-75
2021/05/31 03:48:19;;;;;;;10.43;6.20;;;10.50;86.70;;;;;;4989974;28;20414;-76
2021/05/31 03:50:44;;;;;;;15.00;6.57;;;10.60;86.20;;;;;;4990204;28;20736;-76
2021/05/31 03:53:10;;;;;;;10.98;6.03;;;10.60;85.70;;;;;;4990145;28;20448;-75
2021/05/31 03:55:36;;;;;;;11.60;6.28;;;10.50;86.50;;;;;;4990143;28;20379;-75
2021/05/31 03:58:01;;;;;;;12.53;6.33;;;10.60;85.90;;;;;;5057393;28;20515;-75
2021/05/31 04:00:28;;;;;;;12.93;7.10;;;10.60;86.00;;;;;;4988837;28;20817;-76
2021/05/31 04:02:54;;;;;;;13.82;7.30;;;10.60;86.10;;;;;;4990192;28;20771;-75
2021/05/31 04:05:20;;;;;;;11.60;6.53;;;10.60;85.80;;;;;;4990163;28;20669;-74
2021/05/31 04:13:17;;;;;;;17.52;9.20;;;10.80;84.90;;;;;;4990003;28;20456;-75
2021/05/31 04:15:42;;;;;;;22.60;10.53;;;10.80;86.00;;;;;;4990113;28;20883;-74
2021/05/31 04:18:08;;;;;;;20.67;9.68;;;10.80;86.10;;;;;;4989583;28;20386;-75
2021/05/31 04:20:34;;;;;;;19.17;9.38;;;10.80;85.50;;;;;;4989902;28;20387;-75
2021/05/31 04:22:59;;;;;;;15.95;8.98;;;10.90;84.90;;;;;;4989803;28;20415;-75
2021/05/31 04:25:25;;;;;;;15.40;8.55;;;10.90;84.60;;;;;;4988878;28;20482;-76
2021/05/31 04:27:51;;;;;;;13.75;7.63;;;11.00;84.60;;;;;;4989904;28;20390;-75
2021/05/31 04:30:17;;;;;;;14.00;7.27;;;11.00;85.10;;;;;;4989581;28;20382;-76
2021/05/31 04:32:42;;;;;;;15.02;7.53;;;11.00;84.30;;;;;;4989827;28;20391;-75
2021/05/31 04:35:08;;;;;;;14.50;7.70;;;11.10;84.20;;;;;;4995063;28;20440;-75
2021/05/31 04:37:34;;;;;;;18.40;7.43;;;11.00;84.80;;;;;;4972260;28;20409;-75
2021/05/31 04:40:02;;;;;;;11.77;7.60;;;11.20;84.20;;;;;;4989667;28;20547;-76
2021/05/31 04:42:27;;;;;;;13.88;8.43;;;11.20;83.60;;;;;;4989423;28;20884;-75
2021/05/31 04:44:53;;;;;;;14.00;8.27;;;11.10;84.40;;;;;;4989575;28;20401;-75
2021/05/31 04:47:18;;;;;;;14.98;8.52;;;11.10;84.40;;;;;;4989264;28;20391;-74
2021/05/31 04:49:44;;;;;;;17.63;8.67;;;11.20;84.10;;;;;;4989081;28;20780;-76
2021/05/31 04:52:10;;;;;;;20.80;8.40;;;11.20;84.00;;;;;;4989183;28;20391;-75
2021/05/31 04:54:36;;;;;;;12.85;7.30;;;11.20;84.30;;;;;;4989362;28;20641;-75
2021/05/31 04:57:02;;;;;;;13.80;7.93;;;11.30;83.70;;;;;;4971180;28;20414;-75
2021/05/31 04:59:27;;;;;;;18.35;9.00;;;11.30;84.10;;;;;;4989115;28;20395;-74
2021/05/31 05:01:53;;;;;;;16.27;8.30;;;11.30;85.10;;;;;;4989023;28;20413;-75
2021/05/31 05:04:18;;;;;;;14.87;8.60;;;11.30;84.90;;;;;;4989117;28;20398;-75
2021/05/31 05:06:44;;;;;;;15.13;8.27;;;11.30;84.30;;;;;;4989109;28;20725;-76
2021/05/31 05:09:10;;;;;;;14.97;7.73;;;11.40;84.40;;;;;;4989347;28;20383;-75
2021/05/31 05:11:35;;;;;;;13.97;7.97;;;11.40;83.80;;;;;;4988926;28;20444;-75
2021/05/31 05:14:01;;;;;;;14.37;8.07;;;11.50;83.70;;;;;;4988837;28;20395;-75
2021/05/31 05:16:27;;;;;;;16.50;8.27;;;11.50;83.80;;;;;;4971473;28;20398;-75
2021/05/31 05:18:56;;;;;;;16.42;7.93;;;11.50;84.30;;;;;;4988390;28;20464;-76
2021/05/31 05:21:22;;;;;;;14.07;8.02;;;11.50;85.00;;;;;;4988652;28;20422;-76
2021/05/31 05:23:48;;;;;;;14.20;8.18;;;11.50;84.50;;;;;;4988310;28;20903;-76
2021/05/31 05:26:15;;;;;;;14.52;8.25;;;11.60;84.10;;;;;;4989417;28;20382;-76
2021/05/31 05:28:41;;;;;;;16.92;8.70;;;11.70;83.80;;;;;;4972517;28;20502;-75
2021/05/31 05:31:08;;;;;;;15.13;7.60;;;11.80;83.30;;;;;;4988606;28;20969;-76
2021/05/31 05:33:36;;;;;;;16.38;8.57;;;11.90;83.20;;;;;;4987015;28;20409;-75
2021/05/31 05:41:35;;;;;;;17.97;7.70;;;12.00;83.60;;;;;;4988188;28;20452;-75
2021/05/31 05:44:32;;;;;;;14.10;7.90;;;12.00;83.60;;;;;;4988809;28;20416;-76
2021/05/31 05:49:39;;;;;;;14.13;8.00;;;12.30;82.80;;;;;;4987782;28;20425;-75
2021/05/31 05:52:06;;;;;;;14.90;8.53;;;12.30;82.60;;;;;;4970795;28;20390;-76
2021/05/31 05:54:32;;;;;;;14.80;7.90;;;12.40;83.30;;;;;;4970782;28;20395;-75
2021/05/31 05:56:57;;;;;;;17.65;10.63;;;12.40;83.20;;;;;;4988138;28;20736;-75
2021/05/31 05:59:23;;;;;;;18.33;10.17;;;12.60;82.50;;;;;;4988381;28;20941;-75
2021/05/31 06:01:50;;;;;;;14.37;9.03;;;12.70;82.40;;;;;;4988054;28;20411;-75
2021/05/31 06:04:16;;;;;;;14.07;7.63;;;12.80;82.00;;;;;;4988362;28;20420;-75
2021/05/31 06:06:44;;;;;;;16.30;7.85;;;12.80;81.60;;;;;;4987962;28;20387;-75
2021/05/31 06:09:12;;;;;;;11.82;7.50;;;12.90;81.70;;;;;;4988226;28;20856;-76
2021/05/31 06:11:38;;;;;;;14.90;7.80;;;12.90;81.60;;;;;;4987933;28;20448;-75
2021/05/31 06:14:04;;;;;;;14.37;7.30;;;12.90;81.60;;;;;;4987969;28;20413;-75
2021/05/31 06:16:30;;;;;;;15.87;7.53;;;12.80;82.30;;;;;;4988038;28;20428;-75
2021/05/31 06:18:55;;;;;;;14.98;7.30;;;13.10;80.30;;;;;;4987752;28;20890;-76
2021/05/31 06:21:21;;;;;;;17.20;7.75;;;13.10;80.20;;;;;;4986838;28;20383;-76
2021/05/31 06:23:46;;;;;;;12.77;7.35;;;13.10;80.60;;;;;;4987431;28;20422;-75
2021/05/31 06:26:12;;;;;;;13.67;7.13;;;13.20;80.50;;;;;;4987921;28;20748;-75
2021/05/31 06:28:38;;;;;;;13.97;7.33;;;13.30;80.80;;;;;;4987444;28;20756;-75
2021/05/31 06:31:04;;;;;;;13.73;7.37;;;13.20;80.60;;;;;;4986287;28;20395;-76
2021/05/31 06:33:30;;;;;;;14.07;7.00;;;13.40;80.70;;;;;;4987854;28;20398;-76
2021/05/31 06:35:57;;;;;;;12.80;7.33;;;13.30;81.00;;;;;;4988181;28;20784;-75
2021/05/31 06:38:22;;;;;;;11.65;6.82;;;13.60;78.70;;;;;;4987724;28;20391;-75
2021/05/31 06:40:48;;;;;;;12.67;6.53;;;13.50;80.90;;;;;;4987894;28;20394;-75
2021/05/31 06:43:14;;;;;;;11.97;6.43;;;13.60;80.70;;;;;;4988009;28;20494;-76
2021/05/31 06:45:39;;;;;;;14.00;6.85;;;13.70;80.10;;;;;;4987848;28;20767;-75
2021/05/31 06:48:07;;;;;;;10.80;6.45;;;13.70;79.30;;;;;;4987126;28;20425;-75
2021/05/31 06:50:34;;;;;;;15.38;6.72;;;13.90;78.30;;;;;;4987982;28;20416;-75
2021/05/31 06:53:00;;;;;;;12.63;6.47;;;14.00;79.00;;;;;;4987648;28;20491;-75
2021/05/31 06:55:26;;;;;;;9.60;5.93;;;13.90;78.50;;;;;;4987495;28;20391;-74
2021/05/31 06:57:53;;;;;;;14.05;6.60;;;14.10;78.50;;;;;;4987544;28;20405;-76
2021/05/31 07:00:21;;;;;;;14.57;6.07;;;14.20;77.20;;;;;;4987159;28;20390;-76
2021/05/31 07:02:46;;;;;;;12.48;6.10;;;14.60;76.10;;;;;;4969772;28;20893;-76
2021/05/31 07:05:12;;;;;;;12.38;6.72;;;14.50;76.20;;;;;;4987309;28;20402;-75
2021/05/31 07:07:38;;;;;;;15.90;6.18;;;14.70;75.90;;;;;;4985762;28;20387;-75
2021/05/31 07:10:09;;;;;;;11.98;6.18;;;14.80;75.00;;;;;;4987291;28;20382;-75
2021/05/31 07:12:35;;;;;;;14.88;6.25;;;14.90;75.40;;;;;;4986977;28;20391;-76
2021/05/31 07:15:04;;;;;;;10.35;5.72;;;14.90;74.60;;;;;;4987668;28;20456;-74
2021/05/31 07:17:33;;;;;;;9.10;5.80;;;15.00;74.40;;;;;;4986841;28;20417;-76
2021/05/31 07:20:00;;;;;;;10.57;5.80;;;15.30;73.60;;;;;;4969680;28;20426;-76
2021/05/31 07:22:26;;;;;;;8.85;5.43;;;15.30;74.60;;;;;;4987060;28;20414;-75
2021/05/31 07:24:52;;;;;;;13.85;6.47;;;15.20;75.30;;;;;;4987111;28;20945;-76
2021/05/31 07:27:19;;;;;;;17.27;6.60;;;15.40;72.50;;;;;;4969642;28;20391;-75
2021/05/31 07:29:45;;;;;;;17.53;5.73;;;15.50;73.50;;;;;;4986765;28;20777;-75
2021/05/31 07:32:11;;;;;;;13.73;5.70;;;15.40;73.70;;;;;;4986724;28;20391;-75
2021/05/31 07:34:37;;;;;;;9.82;6.50;;;15.40;73.80;;;;;;4986460;28;20902;-75
2021/05/31 07:37:02;;;;;;;9.57;5.63;;;15.40;73.80;;;;;;4987284;28;20382;-76
2021/05/31 07:39:28;;;;;;;17.98;5.93;;;15.90;70.90;;;;;;4986445;28;20436;-75
2021/05/31 07:41:54;;;;;;;10.55;5.35;;;16.00;70.40;;;;;;4987024;28;20410;-75
2021/05/31 07:44:20;;;;;;;12.43;5.60;;;15.80;71.70;;;;;;4985267;28;20449;-76
2021/05/31 07:46:46;;;;;;;13.95;5.35;;;16.00;70.10;;;;;;4969527;28;20391;-76
2021/05/31 07:49:12;;;;;;;12.23;5.40;;;16.10;70.60;;;;;;4986686;28;20375;-76
2021/05/31 07:51:43;;;;;;;9.60;5.03;;;16.10;72.00;;;;;;4986497;28;20879;-76
2021/05/31 07:54:08;;;;;;;10.05;4.97;;;16.30;69.00;;;;;;4969237;28;20395;-76
2021/05/31 07:56:35;;;;;;;13.15;5.80;;;16.60;68.40;;;;;;4969254;28;20391;-76
2021/05/31 07:59:01;;;;;;;13.93;5.38;;;16.70;68.40;;;;;;4988401;28;20717;-76
2021/05/31 08:01:27;;;;;;;14.73;5.75;;;16.70;69.00;;;;;;4988405;28;20399;-75
2021/05/31 08:03:52;;;;;;;13.90;5.37;;;16.80;67.80;;;;;;4989984;28;20400;-75
2021/05/31 08:06:18;;;;;;;12.73;5.18;;;16.70;69.40;;;;;;4997460;28;20390;-75
2021/05/31 08:08:43;;;;;;;12.77;5.37;;;16.80;68.80;;;;;;5092602;28;20404;-76
2021/05/31 08:11:10;;;;;;;13.20;5.47;;;16.90;67.40;;;;;;5033615;28;20383;-76
2021/05/31 08:13:37;;;;;;;17.10;7.05;;;16.90;68.30;;;;;;4989479;28;20394;-76
2021/05/31 08:16:04;;;;;;;15.35;6.22;;;17.00;67.40;;;;;;4972022;28;20395;-75
2021/05/31 08:18:29;;;;;;;16.57;7.37;;;17.00;69.00;;;;;;4989888;28;20387;-75
2021/05/31 08:20:55;;;;;;;15.43;6.70;;;17.40;65.10;;;;;;4989589;28;20403;-75
2021/05/31 08:23:21;;;;;;;12.67;6.57;;;17.20;67.40;;;;;;4971900;28;20441;-74
2021/05/31 08:25:47;;;;;;;13.38;6.05;;;17.30;67.30;;;;;;4972074;28;20395;-75
2021/05/31 08:28:13;;;;;;;14.75;6.40;;;17.30;66.00;;;;;;4989470;28;20406;-76
2021/05/31 08:30:41;;;;;;;16.70;6.55;;;17.70;63.40;;;;;;4989561;28;20418;-75
2021/05/31 08:33:07;;;;;;;10.27;5.50;;;17.50;64.80;;;;;;4989325;28;20455;-75
2021/05/31 08:35:37;;;;;;;10.80;6.17;;;17.50;65.20;;;;;;4989780;28;20470;-75
2021/05/31 08:38:03;;;;;;;11.75;5.53;;;17.60;65.10;;;;;;4989125;28;20391;-75
2021/05/31 08:40:29;;;;;;;10.50;5.17;;;17.60;65.00;;;;;;4989619;28;20455;-75
2021/05/31 08:42:54;;;;;;;11.83;6.20;;;17.70;66.10;;;;;;4989178;28;20496;-77
2021/05/31 08:45:22;;;;;;;17.27;9.18;;;17.80;64.60;;;;;;4972025;28;20482;-76
2021/05/31 08:47:49;;;;;;;15.43;7.20;;;18.10;64.10;;;;;;4979395;28;20390;-76
2021/05/31 08:50:19;;;;;;;16.15;6.75;;;18.20;63.20;;;;;;4979577;28;20386;-76
2021/05/31 08:52:45;;;;;;;14.05;6.25;;;18.20;63.00;;;;;;4980507;28;20410;-76
2021/05/31 08:55:13;;;;;;;10.55;5.50;;;18.30;62.30;;;;;;4979190;28;20393;-76
2021/05/31 08:57:38;;;;;;;15.63;6.20;;;18.30;60.80;;;;;;4960760;28;20893;-77
2021/05/31 09:00:07;;;;;;;11.53;5.50;;;18.30;61.30;;;;;;4979873;28;20399;-76
2021/05/31 09:02:35;;;;;;;10.95;5.32;;;18.40;60.50;;;;;;4977317;28;20889;-77
2021/05/31 09:05:01;;;;;;;14.10;5.60;;;18.70;60.70;;;;;;4969732;28;20384;-76
2021/05/31 09:07:26;;;;;;;10.77;5.50;;;18.60;58.30;;;;;;4969988;28;20434;-76
2021/05/31 09:09:54;;;;;;;10.17;4.50;;;18.60;58.60;;;;;;4969169;28;20873;-75
2021/05/31 09:12:23;;;;;;;14.00;5.57;;;18.80;60.70;;;;;;4969972;28;20381;-75
2021/05/31 09:15:01;;;;;;;16.55;5.53;;;19.20;59.60;;;;;;4969328;28;20390;-80
2021/05/31 09:17:28;;;;;;;12.52;4.35;;;19.00;58.10;;;;;;4969765;28;20476;-77
2021/05/31 09:19:55;;;;;;;9.50;3.83;;;19.40;59.40;;;;;;4969595;28;20388;-77
2021/05/31 09:22:21;;;;;;;9.32;4.15;;;19.40;56.10;;;;;;4951968;28;20412;-77
2021/05/31 09:25:01;;;;;;;8.48;4.45;;;19.30;55.80;;;;;;4952118;28;20396;-75
2021/05/31 09:27:30;;;;;;;7.00;3.85;;;19.60;57.00;;;;;;4951116;28;21735;-76
2021/05/31 09:30:00;;;;;;;11.63;5.05;;;20.10;58.30;;;;;;4969372;28;20488;-77
2021/05/31 09:32:27;;;;;;;16.05;5.35;;;19.90;55.40;;;;;;4969086;28;20453;-78
2021/05/31 09:35:00;;;;;;;15.13;5.75;;;19.90;57.60;;;;;;4969542;28;20397;-75
2021/05/31 09:37:26;;;;;;;12.65;5.35;;;19.80;54.30;;;;;;4969034;28;20415;-77
2021/05/31 09:40:03;;;;;;;10.38;5.10;;;20.00;56.30;;;;;;4951476;28;20416;-75
2021/05/31 09:42:30;;;;;;;10.50;5.22;;;19.70;56.00;;;;;;4968551;28;20885;-77
2021/05/31 09:45:06;;;;;;;9.60;4.80;;;19.80;55.70;;;;;;4951806;28;20893;-78
2021/05/31 09:47:33;;;;;;;8.32;4.53;;;19.90;54.70;;;;;;5052392;28;20393;-78
2021/05/31 09:49:59;;;;;;;10.97;4.87;;;20.20;56.50;;;;;;4968744;28;20389;-76
2021/05/31 09:52:25;;;;;;;11.73;4.73;;;20.20;53.30;;;;;;4969008;28;20872;-76
2021/05/31 09:54:52;;;;;;;10.73;5.32;;;20.30;56.00;;;;;;4968868;28;20414;-79
2021/05/31 09:57:29;;;;;;;9.50;5.40;;;19.80;52.70;;;;;;5052066;28;20765;-77
2021/05/31 10:00:20;;;;;;;10.32;4.97;;;19.10;55.00;;;;;;4968652;28;20887;-77
2021/05/31 10:02:55;;;;;;;11.43;5.13;;;19.60;54.20;;;;;;4968964;28;20416;-76
2021/05/31 10:10:33;;;;;;;7.90;3.70;;;19.90;51.60;;;;;;4968581;28;20871;-76
2021/05/31 10:13:00;;;;;;;8.00;4.00;;;19.60;51.50;;;;;;4968581;28;20424;-76
2021/05/31 10:15:29;;;;;;;9.95;4.28;;;20.00;51.30;;;;;;4968350;28;20417;-75
2021/05/31 10:17:56;;;;;;;10.30;4.43;;;20.20;54.20;;;;;;4968553;28;20389;-75
2021/05/31 10:20:23;;;;;;;8.68;4.20;;;20.00;52.40;;;;;;4968305;28;20877;-76
2021/05/31 10:22:48;;;;;;;7.32;3.70;;;19.40;52.40;;;;;;4967186;28;20409;-75
2021/05/31 10:25:16;;;;;;;6.37;3.80;;;19.90;51.90;;;;;;4968433;28;20403;-76
2021/05/31 10:27:43;;;;;;;8.90;4.03;;;20.30;51.90;;;;;;4950794;28;20435;-77
2021/05/31 10:30:12;;;;;;;8.32;3.75;;;20.20;50.50;;;;;;4985360;28;20379;-77
2021/05/31 10:32:38;;;;;;;5.37;2.87;;;20.30;50.80;;;;;;4998343;28;20945;-76
2021/05/31 10:35:17;;;;;;;6.40;3.93;;;20.50;48.10;;;;;;5007342;28;20381;-76
2021/05/31 10:37:55;;;;;;;7.15;3.13;;;20.60;49.70;;;;;;4989560;28;20492;-75
2021/05/31 10:40:32;;;;;;;6.78;3.08;;;20.90;48.00;;;;;;4989762;28;20484;-76
2021/05/31 10:42:58;;;;;;;8.50;3.88;;;20.90;49.70;;;;;;5006943;28;20413;-78
2021/05/31 10:45:26;;;;;;;8.27;3.13;;;20.80;47.80;;;;;;5007455;28;20796;-77
2021/05/31 10:48:08;;;;;;;7.28;3.17;;;20.90;46.90;;;;;;5007054;28;20390;-76
2021/05/31 10:50:40;;;;;;;5.82;3.15;;;20.60;46.10;;;;;;5005951;28;20401;-76
2021/05/31 10:53:19;;;;;;;5.95;2.50;;;20.60;47.90;;;;;;5007043;28;20393;-77
2021/05/31 10:55:56;;;;;;;4.35;2.70;;;20.80;43.70;;;;;;5006918;28;20925;-78
2021/05/31 10:58:31;;;;;;;6.03;3.50;;;20.50;44.70;;;;;;5007076;28;20381;-77
2021/05/31 11:01:11;;;;;;;7.38;3.55;;;20.80;47.20;;;;;;5007018;28;20771;-76
2021/05/31 11:04:04;;;;;;;7.13;2.97;;;20.90;46.00;;;;;;5006742;28;20417;-77
2021/05/31 11:06:51;;;;;;;7.45;3.42;;;21.00;45.50;;;;;;4989242;28;20413;-76
2021/05/31 11:09:19;;;;;;;9.27;3.22;;;21.40;49.10;;;;;;5006603;28;20454;-78
2021/05/31 11:11:53;;;;;;;6.25;3.72;;;21.60;49.00;;;;;;4989313;28;20703;-79
2021/05/31 11:14:43;;;;;;;9.15;3.13;;;21.30;46.90;;;;;;5003951;28;20391;-77
2021/05/31 11:17:16;;;;;;;7.28;3.20;;;21.40;46.70;;;;;;4989081;28;20404;-77
2021/05/31 11:19:44;;;;;;;6.82;3.45;;;21.40;44.50;;;;;;5005383;28;20412;-77
2021/05/31 11:22:17;;;;;;;6.40;3.42;;;21.70;46.70;;;;;;5005970;28;20746;-78
2021/05/31 11:24:56;;;;;;;6.35;2.92;;;21.70;46.20;;;;;;5006719;28;20393;-79
2021/05/31 11:27:29;;;;;;;6.55;3.05;;;21.60;43.60;;;;;;5006709;28;20385;-78
2021/05/31 11:29:55;;;;;;;6.25;3.03;;;20.90;46.70;;;;;;5006611;28;20489;-77
2021/05/31 11:32:21;;;;;;;8.45;3.25;;;21.40;48.40;;;;;;5006350;28;20438;-78
2021/05/31 11:34:54;;;;;;;5.17;3.27;;;21.90;46.90;;;;;;4991656;28;20397;-77
2021/05/31 11:37:24;;;;;;;7.30;3.35;;;22.10;46.90;;;;;;5009749;28;20393;-78
2021/05/31 11:39:51;;;;;;;9.10;3.78;;;22.00;46.60;;;;;;5009814;28;20408;-77
2021/05/31 11:42:17;;;;;;;12.75;3.63;;;21.80;45.40;;;;;;4988157;28;20515;-79
2021/05/31 11:44:52;;;;;;;6.60;3.50;;;21.80;45.50;;;;;;4970851;28;20487;-78
2021/05/31 11:47:26;;;;;;;6.73;3.30;;;22.00;44.60;;;;;;4970714;28;20388;-77
2021/05/31 11:49:52;;;;;;;7.38;3.28;;;22.10;44.80;;;;;;4970751;28;20919;-77
2021/05/31 11:52:18;;;;;;;7.85;4.50;;;22.30;49.10;;;;;;4970614;28;20499;-78
2021/05/31 11:54:45;;;;;;;7.13;3.60;;;22.10;46.00;;;;;;4970510;28;20481;-79
2021/05/31 11:57:21;;;;;;;11.50;3.60;;;22.20;43.40;;;;;;4970988;28;20853;-78
2021/05/31 11:59:51;;;;;;;9.68;4.05;;;22.00;49.00;;;;;;4970364;28;20400;-79
2021/05/31 12:02:18;;;;;;;8.02;4.90;;;22.10;45.70;;;;;;4970725;28;20445;-77
2021/05/31 12:04:45;;;;;;;7.47;3.90;;;22.30;46.20;;;;;;4970398;28;20806;-78
2021/05/31 12:07:18;;;;;;;6.47;3.67;;;22.40;47.30;;;;;;4953052;28;20393;-77
2021/05/31 12:09:45;;;;;;;9.63;4.90;;;22.60;44.70;;;;;;4952946;28;20450;-78
2021/05/31 12:12:16;;;;;;;9.40;5.35;;;22.20;44.10;;;;;;4970611;28;20389;-77
2021/05/31 12:14:53;;;;;;;8.18;4.10;;;22.10;45.00;;;;;;4989391;28;20395;-79
2021/05/31 12:17:21;;;;;;;8.27;3.83;;;21.60;46.20;;;;;;4989847;28;20470;-77
2021/05/31 12:19:50;;;;;;;8.68;4.00;;;21.50;51.80;;;;;;4989766;28;20739;-77
2021/05/31 12:22:16;;;;;;;6.93;3.47;;;21.80;45.50;;;;;;4972100;28;20979;-77
2021/05/31 12:24:53;;;;;;;9.93;3.83;;;22.10;46.50;;;;;;4988407;28;20914;-78
2021/05/31 12:27:25;;;;;;;8.40;3.60;;;22.20;45.90;;;;;;4989326;28;20391;-77
2021/05/31 12:29:52;;;;;;;7.13;3.40;;;22.30;45.40;;;;;;4988091;28;20399;-78
2021/05/31 12:32:19;;;;;;;8.20;3.60;;;22.40;45.40;;;;;;4990109;28;20395;-79
2021/05/31 12:34:45;;;;;;;8.88;4.47;;;22.80;48.90;;;;;;4990944;28;20448;-79
2021/05/31 12:37:14;;;;;;;7.15;4.28;;;22.80;45.70;;;;;;4990081;28;20382;-78
2021/05/31 12:39:44;;;;;;;8.20;3.97;;;22.90;47.60;;;;;;4990345;28;20409;-78
2021/05/31 12:42:11;;;;;;;9.95;4.03;;;22.90;44.70;;;;;;4972972;28;20463;-78
2021/05/31 12:44:37;;;;;;;9.15;4.03;;;22.50;46.60;;;;;;4989965;28;20383;-78
2021/05/31 12:47:09;;;;;;;6.75;4.07;;;22.90;45.70;;;;;;4972872;28;20440;-78
2021/05/31 12:49:41;;;;;;;7.35;4.60;;;22.80;48.00;;;;;;4991002;28;20386;-80
2021/05/31 12:52:07;;;;;;;9.07;4.50;;;22.10;45.20;;;;;;4987609;28;20394;-82
2021/05/31 12:54:32;;;;;;;6.53;3.42;;;22.20;43.70;;;;;;4987430;28;20463;-81
2021/05/31 12:57:08;;;;;;;6.10;3.00;;;22.50;45.50;;;;;;4988245;28;20728;-83
2021/05/31 12:59:33;;;;;;;7.18;3.40;;;22.90;43.10;;;;;;4970500;28;20936;-86
2021/05/31 13:01:59;;;;;;;5.13;2.70;;;22.90;38.30;;;;;;4988595;28;20497;-88
2021/05/31 13:04:26;;;;;;;5.60;2.80;;;22.80;40.70;;;;;;4970935;28;20391;-81
2021/05/31 13:06:52;;;;;;;6.45;2.70;;;23.10;39.80;;;;;;4971614;28;20398;-81